sensor_id;sensor_type;location;lat;lon;timestamp;P1;durP1;ratioP1;P2;durP2;ratioP2
12585;SDS011;6358;50.760;0.282;2022-08-27T00:00:36;2.53;;;1.40;;
12585;SDS011;6358;50.760;0.282;2022-08-27T00:03:02;2.00;;;1.40;;
12585;SDS011;6358;50.760;0.282;2022-08-27T00:05:28;1.70;;;1.10;;
12585;SDS011;6358;50.760;0.282;2022-08-27T00:07:54;2.10;;;1.40;;
12585;SDS011;6358;50.760;0.282;2022-08-27T00:10:22;2.17;;;1.40;;
12585;SDS011;6358;50.760;0.282;2022-08-27T00:12:49;1.88;;;1.40;;
12585;SDS011;6358;50.760;0.282;2022-08-27T00:15:16;1.70;;;1.30;;
12585;SDS011;6358;50.760;0.282;2022-08-27T00:17:43;2.42;;;1.40;;
12585;SDS011;6358;50.760;0.282;2022-08-27T00:20:10;2.38;;;1.08;;
12585;SDS011;6358;50.760;0.282;2022-08-27T00:22:37;1.55;;;1.10;;
12585;SDS011;6358;50.760;0.282;2022-08-27T00:25:03;2.17;;;1.30;;
12585;SDS011;6358;50.760;0.282;2022-08-27T00:27:29;1.17;;;1.10;;
12585;SDS011;6358;50.760;0.282;2022-08-27T00:29:56;2.65;;;1.50;;
12585;SDS011;6358;50.760;0.282;2022-08-27T00:32:22;1.30;;;1.20;;
12585;SDS011;6358;50.760;0.282;2022-08-27T00:34:48;1.35;;;1.25;;
12585;SDS011;6358;50.760;0.282;2022-08-27T00:37:15;2.53;;;1.30;;
12585;SDS011;6358;50.760;0.282;2022-08-27T00:39:41;1.35;;;1.25;;
12585;SDS011;6358;50.760;0.282;2022-08-27T00:42:07;2.95;;;1.55;;
12585;SDS011;6358;50.760;0.282;2022-08-27T00:44:34;2.20;;;1.27;;
12585;SDS011;6358;50.760;0.282;2022-08-27T00:47:10;2.85;;;1.50;;
12585;SDS011;6358;50.760;0.282;2022-08-27T00:49:41;2.33;;;1.25;;
12585;SDS011;6358;50.760;0.282;2022-08-27T00:52:20;2.15;;;1.40;;
12585;SDS011;6358;50.760;0.282;2022-08-27T00:54:47;2.22;;;1.13;;
12585;SDS011;6358;50.760;0.282;2022-08-27T00:57:13;2.22;;;1.60;;
12585;SDS011;6358;50.760;0.282;2022-08-27T00:59:41;1.52;;;1.20;;
12585;SDS011;6358;50.760;0.282;2022-08-27T01:02:07;1.58;;;1.20;;
12585;SDS011;6358;50.760;0.282;2022-08-27T01:04:43;1.77;;;1.30;;
12585;SDS011;6358;50.760;0.282;2022-08-27T01:07:10;1.58;;;1.20;;
12585;SDS011;6358;50.760;0.282;2022-08-27T01:09:38;2.55;;;1.35;;
12585;SDS011;6358;50.760;0.282;2022-08-27T01:12:04;1.10;;;0.95;;
12585;SDS011;6358;50.760;0.282;2022-08-27T01:14:31;2.03;;;1.10;;
12585;SDS011;6358;50.760;0.282;2022-08-27T01:16:57;3.10;;;1.40;;
12585;SDS011;6358;50.760;0.282;2022-08-27T01:19:29;1.45;;;1.10;;
12585;SDS011;6358;50.760;0.282;2022-08-27T01:26:56;1.25;;;1.15;;
12585;SDS011;6358;50.760;0.282;2022-08-27T01:29:23;1.40;;;1.30;;
12585;SDS011;6358;50.760;0.282;2022-08-27T01:31:49;1.55;;;1.35;;
12585;SDS011;6358;50.760;0.282;2022-08-27T01:34:15;1.98;;;1.10;;
12585;SDS011;6358;50.760;0.282;2022-08-27T01:36:41;1.80;;;1.38;;
12585;SDS011;6358;50.760;0.282;2022-08-27T01:39:07;1.90;;;1.33;;
12585;SDS011;6358;50.760;0.282;2022-08-27T01:41:33;3.03;;;1.40;;
12585;SDS011;6358;50.760;0.282;2022-08-27T01:43:59;1.73;;;1.15;;
12585;SDS011;6358;50.760;0.282;2022-08-27T01:46:26;1.80;;;1.25;;
12585;SDS011;6358;50.760;0.282;2022-08-27T01:48:53;1.25;;;1.13;;
12585;SDS011;6358;50.760;0.282;2022-08-27T01:51:19;2.33;;;1.35;;
12585;SDS011;6358;50.760;0.282;2022-08-27T01:53:45;2.85;;;1.40;;
12585;SDS011;6358;50.760;0.282;2022-08-27T01:56:12;1.80;;;1.20;;
12585;SDS011;6358;50.760;0.282;2022-08-27T01:58:38;1.67;;;1.50;;
12585;SDS011;6358;50.760;0.282;2022-08-27T02:01:05;3.17;;;1.50;;
12585;SDS011;6358;50.760;0.282;2022-08-27T02:03:33;1.15;;;1.05;;
12585;SDS011;6358;50.760;0.282;2022-08-27T02:06:03;1.70;;;1.30;;
12585;SDS011;6358;50.760;0.282;2022-08-27T02:08:30;2.33;;;1.33;;
12585;SDS011;6358;50.760;0.282;2022-08-27T02:10:56;3.28;;;1.55;;
12585;SDS011;6358;50.760;0.282;2022-08-27T02:13:22;1.30;;;1.20;;
12585;SDS011;6358;50.760;0.282;2022-08-27T02:15:48;2.17;;;1.30;;
12585;SDS011;6358;50.760;0.282;2022-08-27T02:18:14;1.60;;;1.20;;
12585;SDS011;6358;50.760;0.282;2022-08-27T02:20:41;1.77;;;1.30;;
12585;SDS011;6358;50.760;0.282;2022-08-27T02:23:09;1.58;;;1.30;;
12585;SDS011;6358;50.760;0.282;2022-08-27T02:25:35;1.40;;;1.30;;
12585;SDS011;6358;50.760;0.282;2022-08-27T02:28:02;2.15;;;1.20;;
12585;SDS011;6358;50.760;0.282;2022-08-27T02:30:29;2.08;;;0.98;;
12585;SDS011;6358;50.760;0.282;2022-08-27T02:32:59;1.95;;;1.40;;
12585;SDS011;6358;50.760;0.282;2022-08-27T02:35:25;1.60;;;1.23;;
12585;SDS011;6358;50.760;0.282;2022-08-27T02:37:52;1.25;;;1.00;;
12585;SDS011;6358;50.760;0.282;2022-08-27T02:40:19;2.65;;;1.23;;
12585;SDS011;6358;50.760;0.282;2022-08-27T02:42:46;1.83;;;1.27;;
12585;SDS011;6358;50.760;0.282;2022-08-27T02:45:12;1.50;;;1.20;;
12585;SDS011;6358;50.760;0.282;2022-08-27T02:47:40;1.77;;;1.35;;
12585;SDS011;6358;50.760;0.282;2022-08-27T02:50:06;2.22;;;1.30;;
12585;SDS011;6358;50.760;0.282;2022-08-27T02:52:33;2.25;;;1.10;;
12585;SDS011;6358;50.760;0.282;2022-08-27T02:55:00;1.45;;;1.20;;
12585;SDS011;6358;50.760;0.282;2022-08-27T02:57:26;1.60;;;1.30;;
12585;SDS011;6358;50.760;0.282;2022-08-27T02:59:52;2.45;;;1.30;;
12585;SDS011;6358;50.760;0.282;2022-08-27T03:02:18;1.52;;;1.17;;
12585;SDS011;6358;50.760;0.282;2022-08-27T03:04:45;1.77;;;1.40;;
12585;SDS011;6358;50.760;0.282;2022-08-27T03:07:12;2.53;;;1.35;;
12585;SDS011;6358;50.760;0.282;2022-08-27T03:09:38;1.52;;;1.40;;
12585;SDS011;6358;50.760;0.282;2022-08-27T03:12:04;1.92;;;1.42;;
12585;SDS011;6358;50.760;0.282;2022-08-27T03:14:30;1.88;;;1.38;;
12585;SDS011;6358;50.760;0.282;2022-08-27T03:16:57;1.20;;;1.10;;
12585;SDS011;6358;50.760;0.282;2022-08-27T03:19:46;1.30;;;1.20;;
12585;SDS011;6358;50.760;0.282;2022-08-27T03:22:14;2.50;;;1.33;;
12585;SDS011;6358;50.760;0.282;2022-08-27T03:24:40;2.17;;;1.45;;
12585;SDS011;6358;50.760;0.282;2022-08-27T03:27:07;1.75;;;1.25;;
12585;SDS011;6358;50.760;0.282;2022-08-27T03:29:34;2.38;;;1.20;;
12585;SDS011;6358;50.760;0.282;2022-08-27T03:32:00;1.48;;;1.08;;
12585;SDS011;6358;50.760;0.282;2022-08-27T03:34:27;1.67;;;1.20;;
12585;SDS011;6358;50.760;0.282;2022-08-27T03:36:53;2.55;;;1.20;;
12585;SDS011;6358;50.760;0.282;2022-08-27T03:39:19;2.08;;;1.38;;
12585;SDS011;6358;50.760;0.282;2022-08-27T03:41:45;1.83;;;1.38;;
12585;SDS011;6358;50.760;0.282;2022-08-27T03:44:11;1.65;;;1.10;;
12585;SDS011;6358;50.760;0.282;2022-08-27T03:46:37;2.40;;;1.48;;
12585;SDS011;6358;50.760;0.282;2022-08-27T03:49:04;3.50;;;1.40;;
12585;SDS011;6358;50.760;0.282;2022-08-27T03:51:30;2.10;;;1.30;;
12585;SDS011;6358;50.760;0.282;2022-08-27T03:53:56;1.45;;;1.23;;
12585;SDS011;6358;50.760;0.282;2022-08-27T03:56:22;1.60;;;1.20;;
12585;SDS011;6358;50.760;0.282;2022-08-27T03:58:48;1.75;;;1.30;;
12585;SDS011;6358;50.760;0.282;2022-08-27T04:01:15;1.27;;;1.17;;
12585;SDS011;6358;50.760;0.282;2022-08-27T04:03:41;1.40;;;1.30;;
12585;SDS011;6358;50.760;0.282;2022-08-27T04:06:07;2.38;;;1.55;;
12585;SDS011;6358;50.760;0.282;2022-08-27T04:08:34;1.50;;;1.23;;
12585;SDS011;6358;50.760;0.282;2022-08-27T04:11:03;1.60;;;1.30;;
12585;SDS011;6358;50.760;0.282;2022-08-27T04:13:29;1.40;;;1.30;;
12585;SDS011;6358;50.760;0.282;2022-08-27T04:15:55;2.05;;;1.25;;
12585;SDS011;6358;50.760;0.282;2022-08-27T04:18:22;1.67;;;1.40;;
12585;SDS011;6358;50.760;0.282;2022-08-27T04:20:48;1.60;;;1.30;;
12585;SDS011;6358;50.760;0.282;2022-08-27T04:23:16;3.38;;;1.63;;
12585;SDS011;6358;50.760;0.282;2022-08-27T04:25:43;2.05;;;1.13;;
12585;SDS011;6358;50.760;0.282;2022-08-27T04:28:10;2.60;;;1.45;;
12585;SDS011;6358;50.760;0.282;2022-08-27T04:30:39;1.42;;;1.33;;
12585;SDS011;6358;50.760;0.282;2022-08-27T04:33:06;1.55;;;1.30;;
12585;SDS011;6358;50.760;0.282;2022-08-27T04:35:33;2.08;;;1.35;;
12585;SDS011;6358;50.760;0.282;2022-08-27T04:37:59;1.60;;;1.33;;
12585;SDS011;6358;50.760;0.282;2022-08-27T04:40:25;2.70;;;1.50;;
12585;SDS011;6358;50.760;0.282;2022-08-27T04:43:12;1.63;;;1.40;;
12585;SDS011;6358;50.760;0.282;2022-08-27T04:45:43;1.30;;;1.20;;
12585;SDS011;6358;50.760;0.282;2022-08-27T04:48:10;3.08;;;1.60;;
12585;SDS011;6358;50.760;0.282;2022-08-27T04:50:40;1.50;;;1.35;;
12585;SDS011;6358;50.760;0.282;2022-08-27T04:53:07;1.63;;;1.38;;
12585;SDS011;6358;50.760;0.282;2022-08-27T04:55:33;2.03;;;1.42;;
12585;SDS011;6358;50.760;0.282;2022-08-27T04:58:05;1.48;;;1.38;;
12585;SDS011;6358;50.760;0.282;2022-08-27T05:00:31;1.77;;;1.35;;
12585;SDS011;6358;50.760;0.282;2022-08-27T05:02:57;1.98;;;1.40;;
12585;SDS011;6358;50.760;0.282;2022-08-27T05:05:25;1.38;;;1.10;;
12585;SDS011;6358;50.760;0.282;2022-08-27T05:07:52;2.45;;;1.50;;
12585;SDS011;6358;50.760;0.282;2022-08-27T05:10:18;1.40;;;1.30;;
12585;SDS011;6358;50.760;0.282;2022-08-27T05:12:44;1.40;;;1.30;;
12585;SDS011;6358;50.760;0.282;2022-08-27T05:15:10;2.25;;;1.40;;
12585;SDS011;6358;50.760;0.282;2022-08-27T05:17:37;1.70;;;1.33;;
12585;SDS011;6358;50.760;0.282;2022-08-27T05:20:03;1.98;;;1.50;;
12585;SDS011;6358;50.760;0.282;2022-08-27T05:22:29;1.42;;;1.20;;
12585;SDS011;6358;50.760;0.282;2022-08-27T05:24:55;1.35;;;1.25;;
12585;SDS011;6358;50.760;0.282;2022-08-27T05:27:22;1.73;;;1.40;;
12585;SDS011;6358;50.760;0.282;2022-08-27T05:29:48;2.75;;;1.48;;
12585;SDS011;6358;50.760;0.282;2022-08-27T05:32:14;1.50;;;1.40;;
12585;SDS011;6358;50.760;0.282;2022-08-27T05:34:41;1.33;;;1.23;;
12585;SDS011;6358;50.760;0.282;2022-08-27T05:37:07;1.52;;;1.42;;
12585;SDS011;6358;50.760;0.282;2022-08-27T05:39:33;1.42;;;1.30;;
12585;SDS011;6358;50.760;0.282;2022-08-27T05:42:00;1.48;;;1.38;;
12585;SDS011;6358;50.760;0.282;2022-08-27T05:44:26;1.73;;;1.50;;
12585;SDS011;6358;50.760;0.282;2022-08-27T05:46:52;1.60;;;1.43;;
12585;SDS011;6358;50.760;0.282;2022-08-27T05:49:18;1.63;;;1.45;;
12585;SDS011;6358;50.760;0.282;2022-08-27T05:51:44;1.48;;;1.38;;
12585;SDS011;6358;50.760;0.282;2022-08-27T05:54:10;1.38;;;1.20;;
12585;SDS011;6358;50.760;0.282;2022-08-27T05:56:43;1.63;;;1.52;;
12585;SDS011;6358;50.760;0.282;2022-08-27T05:59:09;2.42;;;1.40;;
12585;SDS011;6358;50.760;0.282;2022-08-27T06:01:54;1.90;;;1.40;;
12585;SDS011;6358;50.760;0.282;2022-08-27T06:04:21;1.10;;;1.10;;
12585;SDS011;6358;50.760;0.282;2022-08-27T06:06:48;2.03;;;1.52;;
12585;SDS011;6358;50.760;0.282;2022-08-27T06:09:16;2.63;;;1.40;;
12585;SDS011;6358;50.760;0.282;2022-08-27T06:11:42;2.47;;;1.40;;
12585;SDS011;6358;50.760;0.282;2022-08-27T06:14:10;1.42;;;1.33;;
12585;SDS011;6358;50.760;0.282;2022-08-27T06:16:37;3.25;;;1.60;;
12585;SDS011;6358;50.760;0.282;2022-08-27T06:19:03;3.33;;;1.52;;
12585;SDS011;6358;50.760;0.282;2022-08-27T06:21:30;1.60;;;1.20;;
12585;SDS011;6358;50.760;0.282;2022-08-27T06:23:56;2.08;;;1.50;;
12585;SDS011;6358;50.760;0.282;2022-08-27T06:26:23;2.05;;;1.60;;
12585;SDS011;6358;50.760;0.282;2022-08-27T06:28:50;2.25;;;1.65;;
12585;SDS011;6358;50.760;0.282;2022-08-27T06:31:17;3.38;;;1.77;;
12585;SDS011;6358;50.760;0.282;2022-08-27T06:33:44;2.33;;;1.63;;
12585;SDS011;6358;50.760;0.282;2022-08-27T06:36:11;2.00;;;1.58;;
12585;SDS011;6358;50.760;0.282;2022-08-27T06:38:39;4.47;;;1.60;;
12585;SDS011;6358;50.760;0.282;2022-08-27T06:41:07;2.83;;;2.00;;
12585;SDS011;6358;50.760;0.282;2022-08-27T06:43:35;3.55;;;1.58;;
12585;SDS011;6358;50.760;0.282;2022-08-27T06:46:06;2.17;;;1.65;;
12585;SDS011;6358;50.760;0.282;2022-08-27T06:48:32;3.58;;;1.70;;
12585;SDS011;6358;50.760;0.282;2022-08-27T06:50:58;3.05;;;2.20;;
12585;SDS011;6358;50.760;0.282;2022-08-27T06:53:25;4.38;;;2.20;;
12585;SDS011;6358;50.760;0.282;2022-08-27T06:55:51;12.50;;;9.13;;
12585;SDS011;6358;50.760;0.282;2022-08-27T06:58:18;79.90;;;72.55;;
12585;SDS011;6358;50.760;0.282;2022-08-27T07:00:44;127.47;;;116.05;;
12585;SDS011;6358;50.760;0.282;2022-08-27T07:03:10;46.08;;;41.72;;
12585;SDS011;6358;50.760;0.282;2022-08-27T07:05:37;22.70;;;20.38;;
12585;SDS011;6358;50.760;0.282;2022-08-27T07:08:04;14.50;;;13.10;;
12585;SDS011;6358;50.760;0.282;2022-08-27T07:10:31;11.32;;;9.65;;
12585;SDS011;6358;50.760;0.282;2022-08-27T07:12:58;8.93;;;8.02;;
12585;SDS011;6358;50.760;0.282;2022-08-27T07:15:24;8.68;;;5.20;;
12585;SDS011;6358;50.760;0.282;2022-08-27T07:17:51;5.37;;;4.60;;
12585;SDS011;6358;50.760;0.282;2022-08-27T07:20:18;5.33;;;3.93;;
12585;SDS011;6358;50.760;0.282;2022-08-27T07:22:44;3.63;;;3.27;;
12585;SDS011;6358;50.760;0.282;2022-08-27T07:25:12;3.93;;;3.13;;
12585;SDS011;6358;50.760;0.282;2022-08-27T07:27:39;5.00;;;4.50;;
12585;SDS011;6358;50.760;0.282;2022-08-27T07:30:06;5.30;;;4.53;;
12585;SDS011;6358;50.760;0.282;2022-08-27T07:32:33;5.83;;;4.27;;
12585;SDS011;6358;50.760;0.282;2022-08-27T07:34:59;4.63;;;3.87;;
12585;SDS011;6358;50.760;0.282;2022-08-27T07:37:27;4.00;;;3.70;;
12585;SDS011;6358;50.760;0.282;2022-08-27T07:39:53;3.88;;;3.40;;
12585;SDS011;6358;50.760;0.282;2022-08-27T07:42:19;5.65;;;3.30;;
12585;SDS011;6358;50.760;0.282;2022-08-27T07:45:04;4.75;;;2.97;;
12585;SDS011;6358;50.760;0.282;2022-08-27T07:47:31;3.97;;;3.10;;
12585;SDS011;6358;50.760;0.282;2022-08-27T07:49:57;3.33;;;2.90;;
12585;SDS011;6358;50.760;0.282;2022-08-27T07:52:23;7.22;;;3.10;;
12585;SDS011;6358;50.760;0.282;2022-08-27T07:54:49;2.97;;;2.63;;
12585;SDS011;6358;50.760;0.282;2022-08-27T07:57:16;2.80;;;2.55;;
12585;SDS011;6358;50.760;0.282;2022-08-27T07:59:42;3.38;;;2.53;;
12585;SDS011;6358;50.760;0.282;2022-08-27T08:02:08;3.17;;;2.50;;
12585;SDS011;6358;50.760;0.282;2022-08-27T08:04:36;3.17;;;2.10;;
12585;SDS011;6358;50.760;0.282;2022-08-27T08:07:02;3.90;;;2.30;;
12585;SDS011;6358;50.760;0.282;2022-08-27T08:09:28;3.53;;;2.30;;
12585;SDS011;6358;50.760;0.282;2022-08-27T08:11:56;3.20;;;2.30;;
12585;SDS011;6358;50.760;0.282;2022-08-27T08:14:22;2.28;;;1.98;;
12585;SDS011;6358;50.760;0.282;2022-08-27T08:16:48;2.88;;;2.38;;
12585;SDS011;6358;50.760;0.282;2022-08-27T08:19:14;3.33;;;1.95;;
12585;SDS011;6358;50.760;0.282;2022-08-27T08:21:40;4.00;;;1.80;;
12585;SDS011;6358;50.760;0.282;2022-08-27T08:24:07;2.38;;;1.90;;
12585;SDS011;6358;50.760;0.282;2022-08-27T08:26:33;3.38;;;2.25;;
12585;SDS011;6358;50.760;0.282;2022-08-27T08:29:00;3.40;;;2.15;;
12585;SDS011;6358;50.760;0.282;2022-08-27T08:31:29;1.98;;;1.77;;
12585;SDS011;6358;50.760;0.282;2022-08-27T08:33:55;2.28;;;1.98;;
12585;SDS011;6358;50.760;0.282;2022-08-27T08:36:21;2.35;;;1.75;;
12585;SDS011;6358;50.760;0.282;2022-08-27T08:38:47;2.28;;;1.80;;
12585;SDS011;6358;50.760;0.282;2022-08-27T08:41:57;1.95;;;1.75;;
12585;SDS011;6358;50.760;0.282;2022-08-27T08:44:16;2.20;;;1.70;;
12585;SDS011;6358;50.760;0.282;2022-08-27T08:46:46;1.63;;;1.52;;
12585;SDS011;6358;50.760;0.282;2022-08-27T08:49:29;1.95;;;1.55;;
12585;SDS011;6358;50.760;0.282;2022-08-27T08:52:01;1.95;;;1.50;;
12585;SDS011;6358;50.760;0.282;2022-08-27T08:54:29;1.80;;;1.58;;
12585;SDS011;6358;50.760;0.282;2022-08-27T08:57:07;2.17;;;1.60;;
12585;SDS011;6358;50.760;0.282;2022-08-27T08:59:40;1.50;;;1.40;;
12585;SDS011;6358;50.760;0.282;2022-08-27T09:02:11;2.05;;;1.50;;
12585;SDS011;6358;50.760;0.282;2022-08-27T09:04:39;2.30;;;1.50;;
12585;SDS011;6358;50.760;0.282;2022-08-27T09:07:06;2.42;;;1.52;;
12585;SDS011;6358;50.760;0.282;2022-08-27T09:12:13;1.52;;;1.38;;
12585;SDS011;6358;50.760;0.282;2022-08-27T09:17:06;1.67;;;1.50;;
12585;SDS011;6358;50.760;0.282;2022-08-27T09:19:33;1.98;;;1.50;;
12585;SDS011;6358;50.760;0.282;2022-08-27T09:22:05;1.90;;;1.52;;
12585;SDS011;6358;50.760;0.282;2022-08-27T09:27:10;2.22;;;1.40;;
12585;SDS011;6358;50.760;0.282;2022-08-27T09:29:45;1.63;;;1.48;;
12585;SDS011;6358;50.760;0.282;2022-08-27T09:32:11;1.95;;;1.50;;
12585;SDS011;6358;50.760;0.282;2022-08-27T09:34:38;1.52;;;1.40;;
12585;SDS011;6358;50.760;0.282;2022-08-27T09:40:18;3.17;;;1.50;;
12585;SDS011;6358;50.760;0.282;2022-08-27T09:42:32;2.75;;;1.70;;
12585;SDS011;6358;50.760;0.282;2022-08-27T09:45:00;1.92;;;1.30;;
12585;SDS011;6358;50.760;0.282;2022-08-27T09:47:27;1.65;;;1.45;;
12585;SDS011;6358;50.760;0.282;2022-08-27T09:50:00;1.90;;;1.67;;
12585;SDS011;6358;50.760;0.282;2022-08-27T09:52:29;4.68;;;1.65;;
12585;SDS011;6358;50.760;0.282;2022-08-27T09:54:55;2.08;;;1.40;;
12585;SDS011;6358;50.760;0.282;2022-08-27T09:57:30;2.03;;;1.40;;
12585;SDS011;6358;50.760;0.282;2022-08-27T09:59:58;2.40;;;1.40;;
12585;SDS011;6358;50.760;0.282;2022-08-27T10:02:24;1.63;;;1.38;;
12585;SDS011;6358;50.760;0.282;2022-08-27T10:04:52;1.52;;;1.40;;
12585;SDS011;6358;50.760;0.282;2022-08-27T10:07:25;1.83;;;1.20;;
12585;SDS011;6358;50.760;0.282;2022-08-27T10:13:00;2.17;;;1.30;;
12585;SDS011;6358;50.760;0.282;2022-08-27T10:15:28;2.35;;;1.58;;
12585;SDS011;6358;50.760;0.282;2022-08-27T10:18:00;1.60;;;1.50;;
12585;SDS011;6358;50.760;0.282;2022-08-27T10:20:33;1.77;;;1.63;;
12585;SDS011;6358;50.760;0.282;2022-08-27T10:23:19;1.20;;;1.10;;
12585;SDS011;6358;50.760;0.282;2022-08-27T10:33:38;1.45;;;1.33;;
12585;SDS011;6358;50.760;0.282;2022-08-27T10:36:14;1.38;;;1.27;;
12585;SDS011;6358;50.760;0.282;2022-08-27T10:41:15;1.92;;;1.33;;
12585;SDS011;6358;50.760;0.282;2022-08-27T10:51:21;1.38;;;1.27;;
12585;SDS011;6358;50.760;0.282;2022-08-27T10:53:50;1.95;;;1.27;;
12585;SDS011;6358;50.760;0.282;2022-08-27T11:03:58;1.15;;;1.10;;
12585;SDS011;6358;50.760;0.282;2022-08-27T11:06:31;1.77;;;1.17;;
12585;SDS011;6358;50.760;0.282;2022-08-27T11:09:04;2.03;;;1.23;;
12585;SDS011;6358;50.760;0.282;2022-08-27T11:11:39;2.10;;;1.35;;
12585;SDS011;6358;50.760;0.282;2022-08-27T11:14:07;1.40;;;1.30;;
12585;SDS011;6358;50.760;0.282;2022-08-27T11:16:47;1.80;;;1.20;;
12585;SDS011;6358;50.760;0.282;2022-08-27T11:19:17;1.58;;;1.38;;
12585;SDS011;6358;50.760;0.282;2022-08-27T11:21:53;1.30;;;1.20;;
12585;SDS011;6358;50.760;0.282;2022-08-27T11:26:50;2.17;;;1.42;;
12585;SDS011;6358;50.760;0.282;2022-08-27T11:29:33;1.38;;;1.25;;
12585;SDS011;6358;50.760;0.282;2022-08-27T11:32:17;3.25;;;1.70;;
12585;SDS011;6358;50.760;0.282;2022-08-27T11:34:55;1.30;;;1.20;;
12585;SDS011;6358;50.760;0.282;2022-08-27T11:40:01;1.40;;;1.20;;
12585;SDS011;6358;50.760;0.282;2022-08-27T11:45:02;1.67;;;1.23;;
12585;SDS011;6358;50.760;0.282;2022-08-27T11:47:30;2.78;;;1.23;;
12585;SDS011;6358;50.760;0.282;2022-08-27T11:49:57;1.58;;;1.20;;
12585;SDS011;6358;50.760;0.282;2022-08-27T11:52:26;1.20;;;1.10;;
12585;SDS011;6358;50.760;0.282;2022-08-27T11:55:11;1.70;;;1.33;;
12585;SDS011;6358;50.760;0.282;2022-08-27T11:57:39;1.42;;;1.30;;
12585;SDS011;6358;50.760;0.282;2022-08-27T12:02:37;1.80;;;1.30;;
12585;SDS011;6358;50.760;0.282;2022-08-27T12:05:20;1.40;;;1.30;;
12585;SDS011;6358;50.760;0.282;2022-08-27T12:07:48;2.05;;;1.23;;
12585;SDS011;6358;50.760;0.282;2022-08-27T12:10:32;2.00;;;1.30;;
12585;SDS011;6358;50.760;0.282;2022-08-27T12:13:16;2.08;;;1.30;;
12585;SDS011;6358;50.760;0.282;2022-08-27T12:15:48;1.88;;;1.50;;
12585;SDS011;6358;50.760;0.282;2022-08-27T12:23:26;1.40;;;1.30;;
12585;SDS011;6358;50.760;0.282;2022-08-27T12:28:39;1.42;;;1.33;;
12585;SDS011;6358;50.760;0.282;2022-08-27T12:31:05;1.30;;;1.20;;
12585;SDS011;6358;50.760;0.282;2022-08-27T12:33:33;2.42;;;1.40;;
12585;SDS011;6358;50.760;0.282;2022-08-27T12:38:59;1.85;;;1.40;;
12585;SDS011;6358;50.760;0.282;2022-08-27T12:41:29;1.92;;;1.55;;
12585;SDS011;6358;50.760;0.282;2022-08-27T12:44:10;2.17;;;1.42;;
12585;SDS011;6358;50.760;0.282;2022-08-27T12:46:42;1.50;;;1.40;;
12585;SDS011;6358;50.760;0.282;2022-08-27T12:49:10;1.30;;;1.20;;
12585;SDS011;6358;50.760;0.282;2022-08-27T12:51:36;1.77;;;1.30;;
12585;SDS011;6358;50.760;0.282;2022-08-27T13:04:22;1.58;;;1.30;;
12585;SDS011;6358;50.760;0.282;2022-08-27T13:06:49;1.55;;;1.45;;
12585;SDS011;6358;50.760;0.282;2022-08-27T13:09:15;1.58;;;1.48;;
12585;SDS011;6358;50.760;0.282;2022-08-27T13:11:49;2.08;;;1.33;;
12585;SDS011;6358;50.760;0.282;2022-08-27T13:14:22;1.75;;;1.38;;
12585;SDS011;6358;50.760;0.282;2022-08-27T13:16:50;2.15;;;1.50;;
12585;SDS011;6358;50.760;0.282;2022-08-27T13:19:20;1.73;;;1.50;;
12585;SDS011;6358;50.760;0.282;2022-08-27T13:21:47;1.83;;;1.45;;
12585;SDS011;6358;50.760;0.282;2022-08-27T13:24:17;1.50;;;1.40;;
12585;SDS011;6358;50.760;0.282;2022-08-27T13:26:46;1.65;;;1.35;;
12585;SDS011;6358;50.760;0.282;2022-08-27T13:29:12;1.55;;;1.25;;
12585;SDS011;6358;50.760;0.282;2022-08-27T13:31:38;2.85;;;1.35;;
12585;SDS011;6358;50.760;0.282;2022-08-27T13:34:05;1.40;;;1.27;;
12585;SDS011;6358;50.760;0.282;2022-08-27T13:36:33;1.58;;;1.48;;
12585;SDS011;6358;50.760;0.282;2022-08-27T13:39:01;2.33;;;1.30;;
12585;SDS011;6358;50.760;0.282;2022-08-27T13:41:29;2.47;;;1.70;;
12585;SDS011;6358;50.760;0.282;2022-08-27T13:43:57;1.70;;;1.60;;
12585;SDS011;6358;50.760;0.282;2022-08-27T13:46:30;1.48;;;1.38;;
12585;SDS011;6358;50.760;0.282;2022-08-27T13:48:58;2.65;;;1.77;;
12585;SDS011;6358;50.760;0.282;2022-08-27T13:51:31;3.40;;;1.77;;
12585;SDS011;6358;50.760;0.282;2022-08-27T13:53:58;2.70;;;1.67;;
12585;SDS011;6358;50.760;0.282;2022-08-27T14:01:56;1.60;;;1.50;;
12585;SDS011;6358;50.760;0.282;2022-08-27T14:04:24;2.83;;;1.48;;
12585;SDS011;6358;50.760;0.282;2022-08-27T14:06:51;1.92;;;1.60;;
12585;SDS011;6358;50.760;0.282;2022-08-27T14:11:47;1.92;;;1.73;;
12585;SDS011;6358;50.760;0.282;2022-08-27T14:14:14;2.40;;;1.40;;
12585;SDS011;6358;50.760;0.282;2022-08-27T14:16:42;3.33;;;1.98;;
12585;SDS011;6358;50.760;0.282;2022-08-27T14:19:10;2.25;;;1.63;;
12585;SDS011;6358;50.760;0.282;2022-08-27T14:21:37;2.50;;;1.73;;
12585;SDS011;6358;50.760;0.282;2022-08-27T14:24:04;1.77;;;1.60;;
12585;SDS011;6358;50.760;0.282;2022-08-27T14:26:30;2.03;;;1.70;;
12585;SDS011;6358;50.760;0.282;2022-08-27T14:28:57;1.70;;;1.60;;
12585;SDS011;6358;50.760;0.282;2022-08-27T14:31:23;2.42;;;1.50;;
12585;SDS011;6358;50.760;0.282;2022-08-27T14:33:50;2.83;;;1.73;;
12585;SDS011;6358;50.760;0.282;2022-08-27T14:36:18;2.00;;;1.70;;
12585;SDS011;6358;50.760;0.282;2022-08-27T14:38:45;2.30;;;1.80;;
12585;SDS011;6358;50.760;0.282;2022-08-27T14:41:12;3.20;;;2.10;;
12585;SDS011;6358;50.760;0.282;2022-08-27T14:43:39;2.92;;;1.88;;
12585;SDS011;6358;50.760;0.282;2022-08-27T14:46:05;2.90;;;2.03;;
12585;SDS011;6358;50.760;0.282;2022-08-27T14:48:32;2.17;;;1.75;;
12585;SDS011;6358;50.760;0.282;2022-08-27T14:50:59;1.67;;;1.40;;
12585;SDS011;6358;50.760;0.282;2022-08-27T14:53:26;2.20;;;1.60;;
12585;SDS011;6358;50.760;0.282;2022-08-27T14:55:52;2.38;;;1.50;;
12585;SDS011;6358;50.760;0.282;2022-08-27T14:58:20;1.50;;;1.40;;
12585;SDS011;6358;50.760;0.282;2022-08-27T15:00:46;2.70;;;1.52;;
12585;SDS011;6358;50.760;0.282;2022-08-27T15:03:13;2.05;;;1.60;;
12585;SDS011;6358;50.760;0.282;2022-08-27T15:05:39;2.42;;;1.70;;
12585;SDS011;6358;50.760;0.282;2022-08-27T15:08:05;2.50;;;1.70;;
12585;SDS011;6358;50.760;0.282;2022-08-27T15:10:31;2.28;;;1.58;;
12585;SDS011;6358;50.760;0.282;2022-08-27T15:12:58;3.17;;;1.67;;
12585;SDS011;6358;50.760;0.282;2022-08-27T15:15:24;1.88;;;1.50;;
12585;SDS011;6358;50.760;0.282;2022-08-27T15:17:50;2.55;;;1.88;;
12585;SDS011;6358;50.760;0.282;2022-08-27T15:20:16;2.05;;;1.77;;
12585;SDS011;6358;50.760;0.282;2022-08-27T15:22:43;1.88;;;1.60;;
12585;SDS011;6358;50.760;0.282;2022-08-27T15:25:11;2.58;;;1.75;;
12585;SDS011;6358;50.760;0.282;2022-08-27T15:27:38;2.13;;;1.83;;
12585;SDS011;6358;50.760;0.282;2022-08-27T15:30:05;2.17;;;1.77;;
12585;SDS011;6358;50.760;0.282;2022-08-27T15:32:34;3.05;;;1.80;;
12585;SDS011;6358;50.760;0.282;2022-08-27T15:35:02;1.73;;;1.45;;
12585;SDS011;6358;50.760;0.282;2022-08-27T15:37:29;2.00;;;1.60;;
12585;SDS011;6358;50.760;0.282;2022-08-27T15:39:55;3.00;;;1.60;;
12585;SDS011;6358;50.760;0.282;2022-08-27T15:42:21;1.77;;;1.60;;
12585;SDS011;6358;50.760;0.282;2022-08-27T15:44:49;1.92;;;1.65;;
12585;SDS011;6358;50.760;0.282;2022-08-27T15:47:16;3.42;;;1.80;;
12585;SDS011;6358;50.760;0.282;2022-08-27T15:49:43;2.20;;;1.63;;
12585;SDS011;6358;50.760;0.282;2022-08-27T15:52:09;2.00;;;1.67;;
12585;SDS011;6358;50.760;0.282;2022-08-27T15:54:37;2.65;;;1.58;;
12585;SDS011;6358;50.760;0.282;2022-08-27T15:57:06;3.63;;;1.65;;
12585;SDS011;6358;50.760;0.282;2022-08-27T15:59:32;2.20;;;1.50;;
12585;SDS011;6358;50.760;0.282;2022-08-27T16:01:59;2.67;;;1.80;;
12585;SDS011;6358;50.760;0.282;2022-08-27T16:04:25;2.65;;;1.63;;
12585;SDS011;6358;50.760;0.282;2022-08-27T16:06:51;3.40;;;2.10;;
12585;SDS011;6358;50.760;0.282;2022-08-27T16:09:17;1.95;;;1.52;;
12585;SDS011;6358;50.760;0.282;2022-08-27T16:11:43;1.83;;;1.50;;
12585;SDS011;6358;50.760;0.282;2022-08-27T16:14:10;2.95;;;1.60;;
12585;SDS011;6358;50.760;0.282;2022-08-27T16:16:36;2.33;;;1.50;;
12585;SDS011;6358;50.760;0.282;2022-08-27T16:19:04;2.38;;;1.50;;
12585;SDS011;6358;50.760;0.282;2022-08-27T16:21:31;2.30;;;1.63;;
12585;SDS011;6358;50.760;0.282;2022-08-27T16:23:59;1.95;;;1.60;;
12585;SDS011;6358;50.760;0.282;2022-08-27T16:26:26;2.75;;;1.73;;
12585;SDS011;6358;50.760;0.282;2022-08-27T16:28:52;2.72;;;1.30;;